sensor_id;sensor_type;location;lat;lon;timestamp;P1;durP1;ratioP1;P2;durP2;ratioP2
62588;SDS011;58504;48.770;9.148;2023-03-02T00:00:39;2.95;;;2.67;;
62588;SDS011;58504;48.770;9.148;2023-03-02T00:03:10;2.92;;;2.72;;
62588;SDS011;58504;48.770;9.148;2023-03-02T00:05:38;3.00;;;2.80;;
62588;SDS011;58504;48.770;9.148;2023-03-02T00:08:08;3.38;;;3.08;;
62588;SDS011;58504;48.770;9.148;2023-03-02T00:10:35;3.95;;;2.80;;
62588;SDS011;58504;48.770;9.148;2023-03-02T00:13:02;4.65;;;3.72;;
62588;SDS011;58504;48.770;9.148;2023-03-02T00:15:29;2.72;;;2.53;;
62588;SDS011;58504;48.770;9.148;2023-03-02T00:17:56;3.40;;;3.05;;
62588;SDS011;58504;48.770;9.148;2023-03-02T00:20:23;2.80;;;2.60;;
62588;SDS011;58504;48.770;9.148;2023-03-02T00:22:50;3.00;;;2.80;;
62588;SDS011;58504;48.770;9.148;2023-03-02T00:25:18;2.58;;;2.38;;
62588;SDS011;58504;48.770;9.148;2023-03-02T00:27:45;3.05;;;2.75;;
62588;SDS011;58504;48.770;9.148;2023-03-02T00:30:12;3.50;;;3.20;;
62588;SDS011;58504;48.770;9.148;2023-03-02T00:32:40;2.90;;;2.70;;
62588;SDS011;58504;48.770;9.148;2023-03-02T00:35:07;3.40;;;3.10;;
62588;SDS011;58504;48.770;9.148;2023-03-02T00:37:35;3.05;;;2.85;;
62588;SDS011;58504;48.770;9.148;2023-03-02T00:40:02;4.68;;;2.80;;
62588;SDS011;58504;48.770;9.148;2023-03-02T00:42:32;3.30;;;2.58;;
62588;SDS011;58504;48.770;9.148;2023-03-02T00:44:59;3.38;;;3.08;;
62588;SDS011;58504;48.770;9.148;2023-03-02T00:47:27;3.17;;;2.60;;
62588;SDS011;58504;48.770;9.148;2023-03-02T00:49:54;3.70;;;2.70;;
62588;SDS011;58504;48.770;9.148;2023-03-02T00:52:21;2.70;;;2.50;;
62588;SDS011;58504;48.770;9.148;2023-03-02T00:54:48;3.15;;;2.88;;
62588;SDS011;58504;48.770;9.148;2023-03-02T00:57:14;5.10;;;2.95;;
62588;SDS011;58504;48.770;9.148;2023-03-02T00:59:43;3.30;;;3.00;;
62588;SDS011;58504;48.770;9.148;2023-03-02T01:02:09;3.30;;;2.80;;
62588;SDS011;58504;48.770;9.148;2023-03-02T01:04:37;3.90;;;3.30;;
62588;SDS011;58504;48.770;9.148;2023-03-02T01:07:06;4.57;;;3.10;;
62588;SDS011;58504;48.770;9.148;2023-03-02T01:09:34;3.05;;;2.83;;
62588;SDS011;58504;48.770;9.148;2023-03-02T01:12:02;3.17;;;2.92;;
62588;SDS011;58504;48.770;9.148;2023-03-02T01:14:33;3.28;;;2.60;;
62588;SDS011;58504;48.770;9.148;2023-03-02T01:17:01;2.83;;;2.63;;
62588;SDS011;58504;48.770;9.148;2023-03-02T01:19:29;3.28;;;3.00;;
62588;SDS011;58504;48.770;9.148;2023-03-02T01:21:55;3.05;;;2.85;;
62588;SDS011;58504;48.770;9.148;2023-03-02T01:24:22;3.30;;;3.00;;
62588;SDS011;58504;48.770;9.148;2023-03-02T01:26:49;3.00;;;2.80;;
62588;SDS011;58504;48.770;9.148;2023-03-02T01:29:16;2.85;;;2.65;;
62588;SDS011;58504;48.770;9.148;2023-03-02T01:31:42;3.33;;;3.03;;
62588;SDS011;58504;48.770;9.148;2023-03-02T01:34:11;3.05;;;2.75;;
62588;SDS011;58504;48.770;9.148;2023-03-02T01:36:37;3.45;;;3.15;;
62588;SDS011;58504;48.770;9.148;2023-03-02T01:39:04;3.33;;;2.92;;
62588;SDS011;58504;48.770;9.148;2023-03-02T01:41:31;3.40;;;2.97;;
62588;SDS011;58504;48.770;9.148;2023-03-02T01:43:58;3.20;;;3.00;;
62588;SDS011;58504;48.770;9.148;2023-03-02T01:46:25;2.70;;;2.50;;
62588;SDS011;58504;48.770;9.148;2023-03-02T01:48:55;3.50;;;3.20;;
62588;SDS011;58504;48.770;9.148;2023-03-02T01:51:26;2.80;;;2.60;;
62588;SDS011;58504;48.770;9.148;2023-03-02T01:53:54;2.80;;;2.60;;
62588;SDS011;58504;48.770;9.148;2023-03-02T01:56:24;3.00;;;2.70;;
62588;SDS011;58504;48.770;9.148;2023-03-02T01:58:57;2.75;;;2.55;;
62588;SDS011;58504;48.770;9.148;2023-03-02T02:01:26;4.10;;;2.70;;
62588;SDS011;58504;48.770;9.148;2023-03-02T02:03:54;3.35;;;3.05;;
62588;SDS011;58504;48.770;9.148;2023-03-02T02:06:22;3.72;;;3.42;;
62588;SDS011;58504;48.770;9.148;2023-03-02T02:08:54;3.00;;;2.80;;
62588;SDS011;58504;48.770;9.148;2023-03-02T02:11:22;3.35;;;2.92;;
62588;SDS011;58504;48.770;9.148;2023-03-02T02:13:50;3.03;;;2.72;;
62588;SDS011;58504;48.770;9.148;2023-03-02T02:16:20;3.58;;;3.25;;
62588;SDS011;58504;48.770;9.148;2023-03-02T02:18:46;3.20;;;2.90;;
62588;SDS011;58504;48.770;9.148;2023-03-02T02:21:13;3.28;;;3.08;;
62588;SDS011;58504;48.770;9.148;2023-03-02T02:23:43;4.40;;;3.65;;
62588;SDS011;58504;48.770;9.148;2023-03-02T02:26:20;3.20;;;2.90;;
62588;SDS011;58504;48.770;9.148;2023-03-02T02:28:52;3.58;;;3.28;;
62588;SDS011;58504;48.770;9.148;2023-03-02T02:31:24;2.83;;;2.63;;
62588;SDS011;58504;48.770;9.148;2023-03-02T02:33:56;3.77;;;3.40;;
62588;SDS011;58504;48.770;9.148;2023-03-02T02:36:28;3.58;;;3.28;;
62588;SDS011;58504;48.770;9.148;2023-03-02T02:38:59;2.58;;;2.38;;
62588;SDS011;58504;48.770;9.148;2023-03-02T02:41:31;3.55;;;3.15;;
62588;SDS011;58504;48.770;9.148;2023-03-02T02:44:01;3.17;;;2.92;;
62588;SDS011;58504;48.770;9.148;2023-03-02T02:46:28;5.40;;;3.88;;
62588;SDS011;58504;48.770;9.148;2023-03-02T02:49:00;3.25;;;2.95;;
62588;SDS011;58504;48.770;9.148;2023-03-02T02:51:28;3.50;;;3.20;;
62588;SDS011;58504;48.770;9.148;2023-03-02T02:53:56;4.15;;;3.47;;
62588;SDS011;58504;48.770;9.148;2023-03-02T02:56:24;3.38;;;3.08;;
62588;SDS011;58504;48.770;9.148;2023-03-02T02:58:55;3.33;;;3.03;;
62588;SDS011;58504;48.770;9.148;2023-03-02T03:01:24;4.03;;;3.55;;
62588;SDS011;58504;48.770;9.148;2023-03-02T03:03:52;4.25;;;3.83;;
62588;SDS011;58504;48.770;9.148;2023-03-02T03:06:22;3.58;;;3.28;;
62588;SDS011;58504;48.770;9.148;2023-03-02T03:08:52;3.63;;;3.33;;
62588;SDS011;58504;48.770;9.148;2023-03-02T03:11:26;4.35;;;3.00;;
62588;SDS011;58504;48.770;9.148;2023-03-02T03:13:57;4.18;;;3.78;;
62588;SDS011;58504;48.770;9.148;2023-03-02T03:16:28;3.40;;;3.10;;
62588;SDS011;58504;48.770;9.148;2023-03-02T03:18:56;3.97;;;3.33;;
62588;SDS011;58504;48.770;9.148;2023-03-02T03:21:26;3.92;;;3.22;;
62588;SDS011;58504;48.770;9.148;2023-03-02T03:23:53;3.38;;;3.08;;
62588;SDS011;58504;48.770;9.148;2023-03-02T03:26:20;3.55;;;3.25;;
62588;SDS011;58504;48.770;9.148;2023-03-02T03:28:46;3.72;;;3.42;;
62588;SDS011;58504;48.770;9.148;2023-03-02T03:31:15;3.10;;;2.90;;
62588;SDS011;58504;48.770;9.148;2023-03-02T03:33:41;3.70;;;3.40;;
62588;SDS011;58504;48.770;9.148;2023-03-02T03:36:08;3.50;;;3.20;;
62588;SDS011;58504;48.770;9.148;2023-03-02T03:38:35;3.47;;;3.17;;
62588;SDS011;58504;48.770;9.148;2023-03-02T03:41:02;3.50;;;3.30;;
62588;SDS011;58504;48.770;9.148;2023-03-02T03:43:29;3.38;;;3.08;;
62588;SDS011;58504;48.770;9.148;2023-03-02T03:45:56;3.58;;;3.10;;
62588;SDS011;58504;48.770;9.148;2023-03-02T03:48:24;3.25;;;2.97;;
62588;SDS011;58504;48.770;9.148;2023-03-02T03:50:51;3.55;;;3.25;;
62588;SDS011;58504;48.770;9.148;2023-03-02T03:53:18;2.95;;;2.75;;
62588;SDS011;58504;48.770;9.148;2023-03-02T03:55:44;3.85;;;3.15;;
62588;SDS011;58504;48.770;9.148;2023-03-02T03:58:11;3.40;;;3.10;;
62588;SDS011;58504;48.770;9.148;2023-03-02T04:00:38;3.53;;;3.17;;
62588;SDS011;58504;48.770;9.148;2023-03-02T04:03:05;3.35;;;3.05;;
62588;SDS011;58504;48.770;9.148;2023-03-02T04:05:33;3.63;;;3.33;;
62588;SDS011;58504;48.770;9.148;2023-03-02T04:08:00;3.20;;;3.00;;
62588;SDS011;58504;48.770;9.148;2023-03-02T04:10:27;3.67;;;3.38;;
62588;SDS011;58504;48.770;9.148;2023-03-02T04:12:54;3.75;;;3.45;;
62588;SDS011;58504;48.770;9.148;2023-03-02T04:15:21;3.05;;;2.85;;
62588;SDS011;58504;48.770;9.148;2023-03-02T04:17:49;3.80;;;3.50;;
62588;SDS011;58504;48.770;9.148;2023-03-02T04:20:16;3.58;;;3.20;;
62588;SDS011;58504;48.770;9.148;2023-03-02T04:22:46;3.38;;;3.08;;
62588;SDS011;58504;48.770;9.148;2023-03-02T04:25:16;3.20;;;2.90;;
62588;SDS011;58504;48.770;9.148;2023-03-02T04:27:44;3.50;;;3.20;;
62588;SDS011;58504;48.770;9.148;2023-03-02T04:30:12;3.47;;;3.17;;
62588;SDS011;58504;48.770;9.148;2023-03-02T04:32:40;3.65;;;3.28;;
62588;SDS011;58504;48.770;9.148;2023-03-02T04:35:08;3.80;;;2.97;;
62588;SDS011;58504;48.770;9.148;2023-03-02T04:37:35;3.65;;;3.45;;
62588;SDS011;58504;48.770;9.148;2023-03-02T04:40:03;3.20;;;2.75;;
62588;SDS011;58504;48.770;9.148;2023-03-02T04:42:31;2.97;;;2.75;;
62588;SDS011;58504;48.770;9.148;2023-03-02T04:44:57;4.28;;;3.67;;
62588;SDS011;58504;48.770;9.148;2023-03-02T04:47:24;3.58;;;2.90;;
62588;SDS011;58504;48.770;9.148;2023-03-02T04:49:51;3.58;;;3.28;;
62588;SDS011;58504;48.770;9.148;2023-03-02T04:52:20;3.90;;;3.50;;
62588;SDS011;58504;48.770;9.148;2023-03-02T04:54:47;2.95;;;2.65;;
62588;SDS011;58504;48.770;9.148;2023-03-02T04:57:15;3.58;;;3.25;;
62588;SDS011;58504;48.770;9.148;2023-03-02T04:59:42;3.63;;;3.33;;
62588;SDS011;58504;48.770;9.148;2023-03-02T05:02:09;2.90;;;2.65;;
62588;SDS011;58504;48.770;9.148;2023-03-02T05:04:35;4.05;;;3.65;;
62588;SDS011;58504;48.770;9.148;2023-03-02T05:07:04;3.50;;;3.20;;
62588;SDS011;58504;48.770;9.148;2023-03-02T05:09:31;3.70;;;3.40;;
62588;SDS011;58504;48.770;9.148;2023-03-02T05:11:58;3.47;;;3.17;;
62588;SDS011;58504;48.770;9.148;2023-03-02T05:14:27;3.05;;;2.85;;
62588;SDS011;58504;48.770;9.148;2023-03-02T05:16:54;3.97;;;3.17;;
62588;SDS011;58504;48.770;9.148;2023-03-02T05:19:21;3.90;;;3.55;;
62588;SDS011;58504;48.770;9.148;2023-03-02T05:21:48;3.55;;;3.25;;
62588;SDS011;58504;48.770;9.148;2023-03-02T05:24:14;4.00;;;3.67;;
62588;SDS011;58504;48.770;9.148;2023-03-02T05:26:41;3.28;;;2.97;;
62588;SDS011;58504;48.770;9.148;2023-03-02T05:29:08;3.13;;;2.92;;
62588;SDS011;58504;48.770;9.148;2023-03-02T05:31:37;3.28;;;3.08;;
62588;SDS011;58504;48.770;9.148;2023-03-02T05:34:06;2.95;;;2.75;;
62588;SDS011;58504;48.770;9.148;2023-03-02T05:36:36;3.85;;;3.42;;
62588;SDS011;58504;48.770;9.148;2023-03-02T05:39:03;3.10;;;2.90;;
62588;SDS011;58504;48.770;9.148;2023-03-02T05:41:30;3.88;;;3.58;;
62588;SDS011;58504;48.770;9.148;2023-03-02T05:43:57;3.28;;;2.97;;
62588;SDS011;58504;48.770;9.148;2023-03-02T05:46:24;3.10;;;2.75;;
62588;SDS011;58504;48.770;9.148;2023-03-02T05:48:52;3.35;;;3.13;;
62588;SDS011;58504;48.770;9.148;2023-03-02T05:51:19;3.00;;;2.80;;
62588;SDS011;58504;48.770;9.148;2023-03-02T05:53:46;3.10;;;2.90;;
62588;SDS011;58504;48.770;9.148;2023-03-02T05:56:13;3.20;;;3.00;;
62588;SDS011;58504;48.770;9.148;2023-03-02T05:58:40;3.67;;;3.42;;
62588;SDS011;58504;48.770;9.148;2023-03-02T06:01:07;3.25;;;3.05;;
62588;SDS011;58504;48.770;9.148;2023-03-02T06:03:35;3.28;;;2.97;;
62588;SDS011;58504;48.770;9.148;2023-03-02T06:06:04;3.83;;;3.42;;
62588;SDS011;58504;48.770;9.148;2023-03-02T06:08:31;3.72;;;3.40;;
62588;SDS011;58504;48.770;9.148;2023-03-02T06:10:57;3.50;;;3.05;;
62588;SDS011;58504;48.770;9.148;2023-03-02T06:13:24;3.47;;;3.20;;
62588;SDS011;58504;48.770;9.148;2023-03-02T06:15:51;2.97;;;2.78;;
62588;SDS011;58504;48.770;9.148;2023-03-02T06:18:18;3.30;;;3.10;;
62588;SDS011;58504;48.770;9.148;2023-03-02T06:20:48;4.53;;;3.13;;
62588;SDS011;58504;48.770;9.148;2023-03-02T06:23:16;3.20;;;3.00;;
62588;SDS011;58504;48.770;9.148;2023-03-02T06:25:43;3.40;;;3.20;;
62588;SDS011;58504;48.770;9.148;2023-03-02T06:28:12;3.90;;;3.50;;
62588;SDS011;58504;48.770;9.148;2023-03-02T06:30:39;3.70;;;3.38;;
62588;SDS011;58504;48.770;9.148;2023-03-02T06:33:06;3.35;;;3.15;;
62588;SDS011;58504;48.770;9.148;2023-03-02T06:35:33;3.85;;;3.40;;
62588;SDS011;58504;48.770;9.148;2023-03-02T06:38:00;3.08;;;2.85;;
62588;SDS011;58504;48.770;9.148;2023-03-02T06:40:28;3.58;;;3.35;;
62588;SDS011;58504;48.770;9.148;2023-03-02T06:42:55;3.63;;;3.33;;
62588;SDS011;58504;48.770;9.148;2023-03-02T06:45:24;3.53;;;3.22;;
62588;SDS011;58504;48.770;9.148;2023-03-02T06:47:51;3.08;;;2.78;;
62588;SDS011;58504;48.770;9.148;2023-03-02T06:50:18;3.28;;;3.00;;
62588;SDS011;58504;48.770;9.148;2023-03-02T06:52:45;3.28;;;2.97;;
62588;SDS011;58504;48.770;9.148;2023-03-02T06:55:12;4.05;;;3.60;;
62588;SDS011;58504;48.770;9.148;2023-03-02T06:57:40;3.90;;;3.60;;
62588;SDS011;58504;48.770;9.148;2023-03-02T07:00:07;3.25;;;3.05;;
62588;SDS011;58504;48.770;9.148;2023-03-02T07:02:39;11.57;;;3.65;;
62588;SDS011;58504;48.770;9.148;2023-03-02T07:05:06;6.38;;;4.35;;
62588;SDS011;58504;48.770;9.148;2023-03-02T07:07:33;7.90;;;3.63;;
62588;SDS011;58504;48.770;9.148;2023-03-02T07:10:00;4.82;;;3.40;;
62588;SDS011;58504;48.770;9.148;2023-03-02T07:12:26;4.70;;;3.60;;
62588;SDS011;58504;48.770;9.148;2023-03-02T07:14:54;5.30;;;3.92;;
62588;SDS011;58504;48.770;9.148;2023-03-02T07:17:21;15.27;;;3.60;;
62588;SDS011;58504;48.770;9.148;2023-03-02T07:19:48;6.82;;;3.40;;
62588;SDS011;58504;48.770;9.148;2023-03-02T07:22:15;6.47;;;4.18;;
62588;SDS011;58504;48.770;9.148;2023-03-02T07:24:42;5.22;;;3.20;;
62588;SDS011;58504;48.770;9.148;2023-03-02T07:27:08;4.60;;;3.58;;
62588;SDS011;58504;48.770;9.148;2023-03-02T07:29:35;7.43;;;3.80;;
62588;SDS011;58504;48.770;9.148;2023-03-02T07:32:04;7.53;;;3.97;;
62588;SDS011;58504;48.770;9.148;2023-03-02T07:34:31;5.03;;;3.78;;
62588;SDS011;58504;48.770;9.148;2023-03-02T07:36:57;3.65;;;3.35;;
62588;SDS011;58504;48.770;9.148;2023-03-02T07:39:24;9.48;;;3.67;;
62588;SDS011;58504;48.770;9.148;2023-03-02T07:41:51;27.42;;;4.45;;
62588;SDS011;58504;48.770;9.148;2023-03-02T07:44:18;3.60;;;3.30;;
62588;SDS011;58504;48.770;9.148;2023-03-02T07:46:44;4.68;;;3.42;;
62588;SDS011;58504;48.770;9.148;2023-03-02T07:49:12;4.28;;;3.63;;
62588;SDS011;58504;48.770;9.148;2023-03-02T07:51:39;5.32;;;3.20;;
62588;SDS011;58504;48.770;9.148;2023-03-02T07:54:06;3.90;;;3.50;;
62588;SDS011;58504;48.770;9.148;2023-03-02T07:56:33;3.65;;;3.30;;
62588;SDS011;58504;48.770;9.148;2023-03-02T07:58:59;5.38;;;3.40;;
62588;SDS011;58504;48.770;9.148;2023-03-02T08:01:26;7.82;;;3.80;;
62588;SDS011;58504;48.770;9.148;2023-03-02T08:03:53;4.00;;;3.17;;
62588;SDS011;58504;48.770;9.148;2023-03-02T08:06:21;5.07;;;3.40;;
62588;SDS011;58504;48.770;9.148;2023-03-02T08:08:48;9.80;;;4.10;;
62588;SDS011;58504;48.770;9.148;2023-03-02T08:11:16;3.75;;;3.33;;
62588;SDS011;58504;48.770;9.148;2023-03-02T08:13:43;8.25;;;3.60;;
62588;SDS011;58504;48.770;9.148;2023-03-02T08:16:11;4.22;;;3.63;;
62588;SDS011;58504;48.770;9.148;2023-03-02T08:18:39;3.25;;;2.95;;
62588;SDS011;58504;48.770;9.148;2023-03-02T08:21:09;4.70;;;3.88;;
62588;SDS011;58504;48.770;9.148;2023-03-02T08:23:38;5.00;;;3.70;;
62588;SDS011;58504;48.770;9.148;2023-03-02T08:26:05;3.70;;;3.15;;
62588;SDS011;58504;48.770;9.148;2023-03-02T08:28:32;3.58;;;2.92;;
62588;SDS011;58504;48.770;9.148;2023-03-02T08:31:00;3.72;;;3.42;;
62588;SDS011;58504;48.770;9.148;2023-03-02T08:33:28;3.58;;;3.28;;
62588;SDS011;58504;48.770;9.148;2023-03-02T08:35:56;3.83;;;3.50;;
62588;SDS011;58504;48.770;9.148;2023-03-02T08:38:25;4.10;;;3.30;;
62588;SDS011;58504;48.770;9.148;2023-03-02T08:40:53;3.97;;;3.35;;
62588;SDS011;58504;48.770;9.148;2023-03-02T08:43:21;3.97;;;3.53;;
62588;SDS011;58504;48.770;9.148;2023-03-02T08:45:49;3.28;;;2.97;;
62588;SDS011;58504;48.770;9.148;2023-03-02T08:48:17;4.03;;;3.58;;
62588;SDS011;58504;48.770;9.148;2023-03-02T08:50:44;5.97;;;3.20;;
62588;SDS011;58504;48.770;9.148;2023-03-02T08:53:19;3.40;;;3.10;;
62588;SDS011;58504;48.770;9.148;2023-03-02T08:55:46;3.63;;;3.33;;
62588;SDS011;58504;48.770;9.148;2023-03-02T08:58:15;3.13;;;2.83;;
62588;SDS011;58504;48.770;9.148;2023-03-02T09:00:41;6.18;;;3.33;;
62588;SDS011;58504;48.770;9.148;2023-03-02T09:03:08;3.92;;;3.10;;
62588;SDS011;58504;48.770;9.148;2023-03-02T09:05:35;3.20;;;2.90;;
62588;SDS011;58504;48.770;9.148;2023-03-02T09:08:02;3.42;;;3.13;;
62588;SDS011;58504;48.770;9.148;2023-03-02T09:10:29;4.47;;;3.25;;
62588;SDS011;58504;48.770;9.148;2023-03-02T09:12:56;3.17;;;2.85;;
62588;SDS011;58504;48.770;9.148;2023-03-02T09:15:24;5.68;;;3.10;;
62588;SDS011;58504;48.770;9.148;2023-03-02T09:17:51;3.58;;;3.28;;
62588;SDS011;58504;48.770;9.148;2023-03-02T09:20:18;3.20;;;2.88;;
62588;SDS011;58504;48.770;9.148;2023-03-02T09:22:44;3.45;;;3.15;;
62588;SDS011;58504;48.770;9.148;2023-03-02T09:25:14;4.32;;;3.28;;
62588;SDS011;58504;48.770;9.148;2023-03-02T09:27:42;3.45;;;3.08;;
62588;SDS011;58504;48.770;9.148;2023-03-02T09:30:09;3.17;;;2.88;;
62588;SDS011;58504;48.770;9.148;2023-03-02T09:32:39;3.65;;;3.35;;
62588;SDS011;58504;48.770;9.148;2023-03-02T09:35:06;3.58;;;2.78;;
62588;SDS011;58504;48.770;9.148;2023-03-02T09:37:33;2.88;;;2.50;;
62588;SDS011;58504;48.770;9.148;2023-03-02T09:40:02;3.45;;;3.10;;
62588;SDS011;58504;48.770;9.148;2023-03-02T09:42:38;2.97;;;2.78;;
62588;SDS011;58504;48.770;9.148;2023-03-02T09:45:17;3.40;;;3.10;;
62588;SDS011;58504;48.770;9.148;2023-03-02T09:48:04;8.35;;;5.95;;
62588;SDS011;58504;48.770;9.148;2023-03-02T09:50:38;10.48;;;5.95;;
62588;SDS011;58504;48.770;9.148;2023-03-02T09:53:20;4.13;;;3.17;;
62588;SDS011;58504;48.770;9.148;2023-03-02T09:55:57;2.92;;;2.72;;
62588;SDS011;58504;48.770;9.148;2023-03-02T09:58:27;7.20;;;3.40;;
62588;SDS011;58504;48.770;9.148;2023-03-02T10:00:59;6.75;;;3.22;;
62588;SDS011;58504;48.770;9.148;2023-03-02T10:03:31;3.75;;;3.00;;
62588;SDS011;58504;48.770;9.148;2023-03-02T10:06:03;3.58;;;3.20;;
62588;SDS011;58504;48.770;9.148;2023-03-02T10:08:33;3.40;;;2.55;;
62588;SDS011;58504;48.770;9.148;2023-03-02T10:11:04;3.40;;;3.05;;
62588;SDS011;58504;48.770;9.148;2023-03-02T10:13:39;3.75;;;3.33;;
62588;SDS011;58504;48.770;9.148;2023-03-02T10:16:11;2.90;;;2.70;;
62588;SDS011;58504;48.770;9.148;2023-03-02T10:18:47;6.10;;;3.05;;
62588;SDS011;58504;48.770;9.148;2023-03-02T10:21:17;4.40;;;3.65;;
62588;SDS011;58504;48.770;9.148;2023-03-02T10:23:51;2.95;;;2.67;;
62588;SDS011;58504;48.770;9.148;2023-03-02T10:29:09;3.10;;;2.83;;
62588;SDS011;58504;48.770;9.148;2023-03-02T10:31:45;3.95;;;3.35;;
62588;SDS011;58504;48.770;9.148;2023-03-02T10:34:18;24.92;;;3.72;;
62588;SDS011;58504;48.770;9.148;2023-03-02T10:36:44;4.38;;;3.20;;
62588;SDS011;58504;48.770;9.148;2023-03-02T10:39:13;5.65;;;2.60;;
62588;SDS011;58504;48.770;9.148;2023-03-02T10:41:42;3.10;;;2.90;;
62588;SDS011;58504;48.770;9.148;2023-03-02T10:44:15;3.28;;;3.00;;
62588;SDS011;58504;48.770;9.148;2023-03-02T10:46:46;4.00;;;3.35;;
62588;SDS011;58504;48.770;9.148;2023-03-02T10:52:04;3.53;;;3.17;;
62588;SDS011;58504;48.770;9.148;2023-03-02T10:54:37;2.85;;;2.50;;
62588;SDS011;58504;48.770;9.148;2023-03-02T10:57:04;2.90;;;2.65;;
62588;SDS011;58504;48.770;9.148;2023-03-02T11:02:16;3.70;;;2.88;;
62588;SDS011;58504;48.770;9.148;2023-03-02T11:07:21;3.78;;;2.92;;
62588;SDS011;58504;48.770;9.148;2023-03-02T11:09:59;6.47;;;3.80;;
62588;SDS011;58504;48.770;9.148;2023-03-02T11:12:28;7.70;;;4.03;;
62588;SDS011;58504;48.770;9.148;2023-03-02T11:15:13;10.38;;;4.00;;
62588;SDS011;58504;48.770;9.148;2023-03-02T11:17:44;4.25;;;3.65;;
62588;SDS011;58504;48.770;9.148;2023-03-02T11:20:16;6.75;;;3.42;;
62588;SDS011;58504;48.770;9.148;2023-03-02T11:22:51;8.43;;;3.53;;
62588;SDS011;58504;48.770;9.148;2023-03-02T11:25:23;6.93;;;4.43;;
62588;SDS011;58504;48.770;9.148;2023-03-02T11:27:54;7.13;;;3.97;;
62588;SDS011;58504;48.770;9.148;2023-03-02T11:30:24;10.60;;;4.18;;
62588;SDS011;58504;48.770;9.148;2023-03-02T11:32:54;6.18;;;3.88;;
62588;SDS011;58504;48.770;9.148;2023-03-02T11:35:30;8.32;;;4.63;;
62588;SDS011;58504;48.770;9.148;2023-03-02T11:38:00;4.68;;;3.88;;
62588;SDS011;58504;48.770;9.148;2023-03-02T11:40:35;10.13;;;3.70;;
62588;SDS011;58504;48.770;9.148;2023-03-02T11:43:09;7.18;;;4.28;;
62588;SDS011;58504;48.770;9.148;2023-03-02T11:45:40;8.10;;;4.20;;
62588;SDS011;58504;48.770;9.148;2023-03-02T11:48:11;10.35;;;4.55;;
62588;SDS011;58504;48.770;9.148;2023-03-02T11:50:48;15.05;;;4.47;;
62588;SDS011;58504;48.770;9.148;2023-03-02T11:53:20;14.52;;;4.72;;
62588;SDS011;58504;48.770;9.148;2023-03-02T11:55:51;11.65;;;5.38;;
62588;SDS011;58504;48.770;9.148;2023-03-02T11:58:19;16.77;;;4.28;;
62588;SDS011;58504;48.770;9.148;2023-03-02T12:00:48;11.70;;;5.32;;
62588;SDS011;58504;48.770;9.148;2023-03-02T12:06:06;15.02;;;4.63;;
62588;SDS011;58504;48.770;9.148;2023-03-02T12:08:50;13.93;;;4.45;;
62588;SDS011;58504;48.770;9.148;2023-03-02T12:11:27;10.70;;;4.15;;
62588;SDS011;58504;48.770;9.148;2023-03-02T12:13:59;9.40;;;4.68;;
62588;SDS011;58504;48.770;9.148;2023-03-02T12:16:33;8.43;;;4.70;;
62588;SDS011;58504;48.770;9.148;2023-03-02T12:19:10;13.63;;;4.93;;
62588;SDS011;58504;48.770;9.148;2023-03-02T12:21:40;4.93;;;3.75;;
62588;SDS011;58504;48.770;9.148;2023-03-02T12:24:20;7.53;;;3.88;;
62588;SDS011;58504;48.770;9.148;2023-03-02T12:26:58;15.48;;;4.70;;
62588;SDS011;58504;48.770;9.148;2023-03-02T12:29:36;8.23;;;4.80;;
62588;SDS011;58504;48.770;9.148;2023-03-02T12:32:09;13.55;;;4.30;;
62588;SDS011;58504;48.770;9.148;2023-03-02T12:34:38;11.43;;;4.70;;
62588;SDS011;58504;48.770;9.148;2023-03-02T12:37:13;8.73;;;3.97;;
62588;SDS011;58504;48.770;9.148;2023-03-02T12:39:54;9.75;;;4.25;;
62588;SDS011;58504;48.770;9.148;2023-03-02T12:45:45;6.80;;;4.65;;
62588;SDS011;58504;48.770;9.148;2023-03-02T12:48:36;7.88;;;3.95;;
62588;SDS011;58504;48.770;9.148;2023-03-02T12:51:11;8.00;;;4.15;;
62588;SDS011;58504;48.770;9.148;2023-03-02T12:53:44;6.30;;;4.22;;
62588;SDS011;58504;48.770;9.148;2023-03-02T12:56:19;8.50;;;3.90;;
62588;SDS011;58504;48.770;9.148;2023-03-02T12:58:48;9.82;;;4.55;;
62588;SDS011;58504;48.770;9.148;2023-03-02T13:01:19;7.28;;;4.22;;
62588;SDS011;58504;48.770;9.148;2023-03-02T13:03:46;8.18;;;3.60;;
62588;SDS011;58504;48.770;9.148;2023-03-02T13:06:15;7.00;;;3.92;;
62588;SDS011;58504;48.770;9.148;2023-03-02T13:08:43;7.20;;;4.28;;
62588;SDS011;58504;48.770;9.148;2023-03-02T13:11:12;8.40;;;3.95;;
62588;SDS011;58504;48.770;9.148;2023-03-02T13:13:47;8.80;;;4.50;;
62588;SDS011;58504;48.770;9.148;2023-03-02T13:16:18;6.45;;;3.90;;
62588;SDS011;58504;48.770;9.148;2023-03-02T13:18:46;6.75;;;4.45;;
62588;SDS011;58504;48.770;9.148;2023-03-02T13:21:17;8.60;;;4.18;;
62588;SDS011;58504;48.770;9.148;2023-03-02T13:23:47;6.53;;;3.70;;
62588;SDS011;58504;48.770;9.148;2023-03-02T13:26:25;8.02;;;4.53;;
62588;SDS011;58504;48.770;9.148;2023-03-02T13:28:59;8.45;;;3.97;;
62588;SDS011;58504;48.770;9.148;2023-03-02T13:31:27;8.50;;;4.55;;
62588;SDS011;58504;48.770;9.148;2023-03-02T13:33:56;6.57;;;4.10;;
62588;SDS011;58504;48.770;9.148;2023-03-02T13:36:24;6.07;;;3.45;;
62588;SDS011;58504;48.770;9.148;2023-03-02T13:38:54;3.80;;;2.95;;
62588;SDS011;58504;48.770;9.148;2023-03-02T13:41:24;5.10;;;3.53;;
62588;SDS011;58504;48.770;9.148;2023-03-02T13:43:52;5.93;;;3.45;;
62588;SDS011;58504;48.770;9.148;2023-03-02T13:46:26;4.82;;;3.08;;
62588;SDS011;58504;48.770;9.148;2023-03-02T13:48:59;6.63;;;3.78;;
62588;SDS011;58504;48.770;9.148;2023-03-02T13:51:29;6.10;;;4.05;;
62588;SDS011;58504;48.770;9.148;2023-03-02T13:54:02;5.50;;;3.90;;
62588;SDS011;58504;48.770;9.148;2023-03-02T13:56:31;3.67;;;3.00;;
62588;SDS011;58504;48.770;9.148;2023-03-02T13:59:02;5.03;;;3.28;;
62588;SDS011;58504;48.770;9.148;2023-03-02T14:01:29;4.63;;;3.42;;
62588;SDS011;58504;48.770;9.148;2023-03-02T14:03:56;7.47;;;3.83;;
62588;SDS011;58504;48.770;9.148;2023-03-02T14:06:25;3.75;;;3.38;;
62588;SDS011;58504;48.770;9.148;2023-03-02T14:08:52;3.45;;;3.15;;
62588;SDS011;58504;48.770;9.148;2023-03-02T14:11:20;7.82;;;3.20;;
62588;SDS011;58504;48.770;9.148;2023-03-02T14:13:50;3.65;;;3.05;;
62588;SDS011;58504;48.770;9.148;2023-03-02T14:16:18;6.40;;;3.22;;
62588;SDS011;58504;48.770;9.148;2023-03-02T14:18:45;5.25;;;3.22;;
62588;SDS011;58504;48.770;9.148;2023-03-02T14:21:14;4.32;;;3.30;;
62588;SDS011;58504;48.770;9.148;2023-03-02T14:23:42;3.85;;;3.08;;
62588;SDS011;58504;48.770;9.148;2023-03-02T14:26:15;4.65;;;3.42;;
62588;SDS011;58504;48.770;9.148;2023-03-02T14:28:52;4.40;;;3.10;;
62588;SDS011;58504;48.770;9.148;2023-03-02T14:31:19;5.30;;;3.47;;
62588;SDS011;58504;48.770;9.148;2023-03-02T14:33:48;5.78;;;3.83;;
62588;SDS011;58504;48.770;9.148;2023-03-02T14:36:16;4.50;;;3.00;;
62588;SDS011;58504;48.770;9.148;2023-03-02T14:38:45;4.22;;;3.25;;
62588;SDS011;58504;48.770;9.148;2023-03-02T14:41:12;3.50;;;3.20;;
62588;SDS011;58504;48.770;9.148;2023-03-02T14:43:42;4.15;;;3.60;;
62588;SDS011;58504;48.770;9.148;2023-03-02T14:46:09;6.45;;;3.20;;
62588;SDS011;58504;48.770;9.148;2023-03-02T14:48:36;3.47;;;3.08;;
62588;SDS011;58504;48.770;9.148;2023-03-02T14:51:02;6.50;;;3.55;;
62588;SDS011;58504;48.770;9.148;2023-03-02T14:53:31;4.07;;;2.92;;
62588;SDS011;58504;48.770;9.148;2023-03-02T14:56:09;3.15;;;2.80;;
62588;SDS011;58504;48.770;9.148;2023-03-02T14:58:36;4.07;;;3.28;;
62588;SDS011;58504;48.770;9.148;2023-03-02T15:01:03;4.88;;;3.58;;
62588;SDS011;58504;48.770;9.148;2023-03-02T15:03:30;4.63;;;3.33;;
62588;SDS011;58504;48.770;9.148;2023-03-02T15:05:57;3.60;;;2.63;;
62588;SDS011;58504;48.770;9.148;2023-03-02T15:08:24;5.25;;;3.47;;
62588;SDS011;58504;48.770;9.148;2023-03-02T15:10:50;4.32;;;3.28;;
62588;SDS011;58504;48.770;9.148;2023-03-02T15:13:19;5.60;;;3.13;;
62588;SDS011;58504;48.770;9.148;2023-03-02T15:15:46;3.03;;;2.63;;